Time;durP1;ratioP1;P1;durP2;ratioP2;P2;SDS_P1;SDS_P2;PMS_P1;PMS_P2;Temp;Humidity;BMP_temperature;BMP_pressure;BME280_temperature;BME280_humidity;BME280_pressure;Samples;Min_cycle;Max_cycle;Signal;HPM_P1;HPM_P2
2023/01/10 00:00:24;;;;;;;10.83;6.20;;;;;;;6.13;100.00;99624.09;5102068;28;20483;-66
2023/01/10 00:02:51;;;;;;;14.47;5.90;;;;;;;6.02;100.00;99623.16;5101294;28;20473;-66
2023/01/10 00:05:18;;;;;;;9.93;5.30;;;;;;;5.80;100.00;99631.16;5115256;28;20443;-66
2023/01/10 00:07:45;;;;;;;7.23;4.60;;;;;;;5.71;100.00;99643.38;5109010;28;20502;-67
2023/01/10 00:10:13;;;;;;;5.23;4.20;;;;;;;5.63;100.00;99654.59;5104677;28;20895;-66
2023/01/10 00:15:25;;;;;;;5.00;3.40;;;;;;;5.51;100.00;99665.34;5115066;28;20447;-66
2023/01/10 00:17:51;;;;;;;6.90;3.70;;;;;;;5.62;100.00;99660.88;5114981;28;20502;-66
2023/01/10 00:20:18;;;;;;;8.60;4.27;;;;;;;5.60;100.00;99665.44;5116210;28;20977;-66
2023/01/10 00:22:45;;;;;;;6.63;3.90;;;;;;;5.63;100.00;99672.31;5100783;28;20443;-68
2023/01/10 00:25:12;;;;;;;7.13;3.67;;;;;;;5.59;100.00;99676.16;5116074;28;20486;-68
2023/01/10 00:27:39;;;;;;;11.93;3.90;;;;;;;5.59;100.00;99686.75;5113478;28;20474;-69
2023/01/10 00:30:12;;;;;;;5.97;3.13;;;;;;;5.56;100.00;99689.69;5118173;28;20447;-68
2023/01/10 00:32:41;;;;;;;6.60;2.93;;;;;;;5.42;100.00;99702.22;5099923;28;20481;-68
2023/01/10 00:35:10;;;;;;;5.00;3.73;;;;;;;5.34;100.00;99696.66;5114887;28;20444;-69
2023/01/10 00:37:38;;;;;;;5.70;3.10;;;;;;;5.33;100.00;99710.03;5110960;28;20530;-70
2023/01/10 00:40:08;;;;;;;5.80;3.20;;;;;;;5.30;100.00;99711.13;5123327;28;20474;-69
2023/01/10 00:45:21;;;;;;;5.40;3.70;;;;;;;5.20;100.00;99737.50;5124745;28;20962;-69
2023/01/10 00:47:49;;;;;;;3.70;2.30;;;;;;;5.14;100.00;99740.66;5122887;28;20470;-69
2023/01/10 00:50:16;;;;;;;6.70;3.00;;;;;;;5.03;100.00;99736.16;5124077;28;20426;-69
2023/01/10 00:52:43;;;;;;;7.23;3.30;;;;;;;5.06;100.00;99754.47;5123371;28;20469;-69
2023/01/10 00:55:10;;;;;;;3.27;2.57;;;;;;;5.12;100.00;99747.88;5106034;28;20463;-69
2023/01/10 00:57:36;;;;;;;4.27;3.23;;;;;;;5.18;100.00;99755.34;5115467;28;20459;-69
2023/01/10 01:00:06;;;;;;;6.57;3.40;;;;;;;5.21;100.00;99759.56;5121919;28;20519;-69
2023/01/10 01:02:33;;;;;;;8.30;3.23;;;;;;;5.24;100.00;99765.47;5119588;28;20500;-68
2023/01/10 01:05:01;;;;;;;4.30;3.43;;;;;;;5.37;100.00;99781.25;5125550;28;20516;-68
2023/01/10 01:07:27;;;;;;;3.33;2.63;;;;;;;5.55;100.00;99768.38;5116735;28;20503;-67
2023/01/10 01:12:34;;;;;;;5.80;3.07;;;;;;;5.75;100.00;99793.34;5108553;28;20982;-68
2023/01/10 01:15:01;;;;;;;5.50;3.17;;;;;;;5.70;100.00;99798.16;5123447;28;20500;-69
2023/01/10 01:17:28;;;;;;;8.43;3.03;;;;;;;5.72;100.00;99814.78;5118740;28;20759;-69
2023/01/10 01:19:54;;;;;;;3.83;2.40;;;;;;;5.77;100.00;99809.97;5124633;28;20552;-68
2023/01/10 01:22:22;;;;;;;9.03;4.77;;;;;;;5.90;100.00;99820.44;5107476;28;20506;-68
2023/01/10 01:24:49;;;;;;;7.30;3.20;;;;;;;5.90;100.00;99831.06;5125032;28;20454;-68
2023/01/10 01:27:16;;;;;;;5.20;3.67;;;;;;;5.90;100.00;99836.38;5115579;28;20501;-68
2023/01/10 01:29:42;;;;;;;7.57;5.13;;;;;;;5.93;100.00;99838.78;5122998;28;20506;-69
2023/01/10 01:32:09;;;;;;;8.10;4.90;;;;;;;5.91;100.00;99846.03;5114346;28;20798;-68
2023/01/10 01:34:35;;;;;;;9.27;5.93;;;;;;;5.77;100.00;99841.81;5123492;28;20461;-71
2023/01/10 01:37:02;;;;;;;9.00;6.00;;;;;;;5.87;100.00;99854.34;5103427;28;20471;-69
2023/01/10 01:39:31;;;;;;;7.73;5.97;;;;;;;5.92;100.00;99861.00;5114861;28;20899;-69
2023/01/10 01:41:59;;;;;;;9.00;6.63;;;;;;;5.95;100.00;99863.38;5105630;28;20482;-69
2023/01/10 01:44:30;;;;;;;8.80;5.40;;;;;;;5.97;100.00;99873.91;5111635;28;20464;-70
2023/01/10 01:47:02;;;;;;;12.20;6.13;;;;;;;6.04;100.00;99880.41;5116782;28;20484;-70
2023/01/10 01:49:30;;;;;;;11.10;5.70;;;;;;;5.97;100.00;99885.38;5111522;28;20531;-69
2023/01/10 01:52:00;;;;;;;9.83;5.50;;;;;;;6.04;100.00;99899.00;5123649;28;20474;-69
2023/01/10 01:54:37;;;;;;;12.40;6.03;;;;;;;6.10;100.00;99903.00;5124095;28;20453;-69
2023/01/10 01:57:06;;;;;;;10.93;6.43;;;;;;;6.02;100.00;99912.41;5123714;28;20482;-68
2023/01/10 01:59:36;;;;;;;9.17;6.43;;;;;;;5.98;100.00;99910.09;5109550;28;20461;-69
2023/01/10 02:02:05;;;;;;;13.77;7.30;;;;;;;6.03;100.00;99911.44;5123354;28;20490;-69
2023/01/10 02:04:38;;;;;;;10.53;5.87;;;;;;;6.12;100.00;99909.88;5119808;28;20486;-69
2023/01/10 02:07:04;;;;;;;11.50;6.60;;;;;;;6.03;100.00;99926.50;5122983;28;20820;-69
2023/01/10 02:09:37;;;;;;;13.73;7.13;;;;;;;6.03;100.00;99916.72;5108777;28;20808;-69
2023/01/10 02:12:04;;;;;;;12.00;7.97;;;;;;;5.91;100.00;99916.81;5108128;28;20474;-69
2023/01/10 02:14:32;;;;;;;13.10;8.20;;;;;;;6.10;100.00;99932.19;5113833;28;20447;-69
2023/01/10 02:16:58;;;;;;;20.23;9.27;;;;;;;6.06;100.00;99934.25;5116160;28;20500;-69
2023/01/10 02:19:32;;;;;;;15.20;9.87;;;;;;;6.06;100.00;99926.28;5123677;28;20476;-69
2023/01/10 02:22:27;;;;;;;17.83;9.80;;;;;;;6.00;100.00;99929.41;5113416;28;20517;-69
2023/01/10 02:25:42;;;;;;;15.33;9.97;;;;;;;6.06;100.00;99944.00;5110268;28;20859;-69
2023/01/10 02:28:41;;;;;;;23.80;10.20;;;;;;;6.03;100.00;99935.31;5106679;28;20463;-69
2023/01/10 02:31:21;;;;;;;24.83;12.13;;;;;;;5.94;100.00;99937.81;5117022;28;20500;-69
2023/01/10 02:33:54;;;;;;;17.27;8.30;;;;;;;6.00;100.00;99940.84;5122769;28;20496;-69
2023/01/10 02:36:31;;;;;;;20.20;9.53;;;;;;;5.97;100.00;99946.41;5115852;28;20474;-68
2023/01/10 02:39:01;;;;;;;20.70;10.30;;;;;;;5.84;100.00;99954.44;5109342;28;20533;-67
2023/01/10 02:41:32;;;;;;;18.97;10.73;;;;;;;6.05;100.00;99963.56;5122815;28;20471;-67
2023/01/10 02:44:03;;;;;;;25.83;12.57;;;;;;;5.96;100.00;99957.16;5103946;28;20444;-68
2023/01/10 02:46:31;;;;;;;24.70;10.50;;;;;;;6.09;100.00;99960.53;5116672;28;20466;-67
2023/01/10 02:48:59;;;;;;;24.20;10.10;;;;;;;5.98;100.00;99966.66;5107343;28;20514;-68
2023/01/10 02:51:27;;;;;;;20.60;9.77;;;;;;;6.00;100.00;99967.38;5121764;28;20564;-67
2023/01/10 02:53:57;;;;;;;20.93;10.03;;;;;;;5.93;100.00;99965.31;5119978;28;20454;-68
2023/01/10 02:56:41;;;;;;;20.50;9.37;;;;;;;5.96;100.00;99963.28;5120990;28;20502;-67
2023/01/10 03:00:05;;;;;;;28.43;11.10;;;;;;;5.94;100.00;99975.81;5087256;28;20456;-68
2023/01/10 03:02:52;;;;;;;19.60;10.23;;;;;;;6.01;100.00;99970.91;5068990;28;20488;-68
2023/01/10 03:05:30;;;;;;;23.77;10.20;;;;;;;5.91;100.00;99970.72;5077456;28;20470;-67
2023/01/10 03:08:02;;;;;;;20.37;9.90;;;;;;;5.98;100.00;99976.44;5118820;28;20475;-67
2023/01/10 03:10:32;;;;;;;22.43;8.27;;;;;;;5.86;100.00;99983.50;5115492;28;20797;-67
2023/01/10 03:13:03;;;;;;;19.10;9.97;;;;;;;5.95;100.00;99985.44;5106362;28;20465;-67
2023/01/10 03:15:33;;;;;;;17.13;8.80;;;;;;;5.95;100.00;99995.22;5116459;28;20456;-67
2023/01/10 03:18:02;;;;;;;22.80;9.17;;;;;;;5.90;100.00;100000.88;5118200;28;20515;-68
2023/01/10 03:20:32;;;;;;;15.67;7.43;;;;;;;5.87;100.00;99992.28;5111301;28;20483;-68
2023/01/10 03:23:00;;;;;;;16.47;9.17;;;;;;;5.89;100.00;100003.66;5102533;28;20568;-68
2023/01/10 03:25:31;;;;;;;19.33;8.40;;;;;;;5.85;100.00;100001.22;5111815;28;20459;-67
2023/01/10 03:28:02;;;;;;;21.00;8.57;;;;;;;5.79;100.00;99998.19;5108863;28;20473;-68
2023/01/10 03:30:31;;;;;;;19.53;7.40;;;;;;;5.70;100.00;100009.50;5113613;28;20514;-68
2023/01/10 03:32:59;;;;;;;15.20;8.03;;;;;;;5.64;100.00;100010.78;5081533;28;20449;-68
2023/01/10 03:35:33;;;;;;;18.10;7.10;;;;;;;5.61;100.00;100016.34;5092347;28;20499;-68
2023/01/10 03:38:05;;;;;;;16.67;6.77;;;;;;;5.56;100.00;100021.16;5103204;28;20940;-69
2023/01/10 03:40:36;;;;;;;21.10;7.33;;;;;;;5.55;100.00;100027.41;5101859;28;20467;-69
2023/01/10 03:46:01;;;;;;;20.23;7.70;;;;;;;5.60;100.00;100042.00;5109938;28;20481;-69
2023/01/10 03:48:31;;;;;;;12.70;6.97;;;;;;;5.60;100.00;100047.31;5116276;28;20527;-67
2023/01/10 03:51:02;;;;;;;24.73;9.93;;;;;;;5.63;100.00;100054.19;5118785;28;20466;-68
2023/01/10 03:53:29;;;;;;;11.73;6.53;;;;;;;5.66;100.00;100062.78;5112765;28;20973;-67
2023/01/10 03:55:56;;;;;;;14.47;6.30;;;;;;;5.53;100.00;100067.28;5104686;28;20857;-69
2023/01/10 03:58:23;;;;;;;12.20;6.20;;;;;;;5.67;100.00;100071.56;5114485;28;20469;-68
2023/01/10 04:00:49;;;;;;;19.73;8.70;;;;;;;5.76;100.00;100072.69;5118398;28;20463;-69
2023/01/10 04:03:16;;;;;;;12.90;6.27;;;;;;;5.65;100.00;100071.69;5114346;28;20536;-68
2023/01/10 04:05:43;;;;;;;14.00;6.80;;;;;;;5.71;100.00;100067.75;5101488;28;21006;-68
2023/01/10 04:08:11;;;;;;;15.53;6.80;;;;;;;5.70;100.00;100071.34;5121542;28;20450;-69
2023/01/10 04:10:37;;;;;;;13.70;6.53;;;;;;;5.57;100.00;100075.84;5120392;28;20498;-69
2023/01/10 04:13:04;;;;;;;13.43;5.80;;;;;;;5.45;100.00;100080.25;5103491;28;20494;-70
2023/01/10 04:15:31;;;;;;;16.63;7.07;;;;;;;5.38;100.00;100079.00;5121828;28;20469;-71
2023/01/10 04:17:58;;;;;;;16.23;5.63;;;;;;;5.55;100.00;100099.00;5118558;28;20501;-70
2023/01/10 04:20:26;;;;;;;18.07;7.10;;;;;;;5.68;100.00;100101.59;5119888;28;20901;-70
2023/01/10 04:22:53;;;;;;;19.13;6.93;;;;;;;5.58;100.00;100096.97;5101446;28;20461;-70
2023/01/10 04:25:21;;;;;;;13.43;6.33;;;;;;;5.69;100.00;100090.88;5110558;28;20451;-70
2023/01/10 04:27:48;;;;;;;20.03;7.50;;;;;;;5.68;100.00;100097.16;5120620;28;20525;-70
2023/01/10 04:30:16;;;;;;;15.03;7.67;;;;;;;5.76;100.00;100107.19;5115810;28;20535;-70
2023/01/10 04:32:42;;;;;;;19.10;7.70;;;;;;;5.64;100.00;100096.53;5118751;28;20485;-70
2023/01/10 04:35:09;;;;;;;22.63;7.17;;;;;;;5.62;100.00;100102.88;5113172;28;20459;-69
2023/01/10 04:37:36;;;;;;;15.93;6.77;;;;;;;5.65;100.00;100100.84;5121364;28;21013;-69
2023/01/10 04:40:04;;;;;;;13.13;6.67;;;;;;;5.48;100.00;100103.91;5111180;28;20520;-68
2023/01/10 04:42:32;;;;;;;13.33;6.47;;;;;;;5.57;100.00;100099.72;5107501;28;21023;-69
2023/01/10 04:44:58;;;;;;;15.57;6.00;;;;;;;5.42;100.00;100107.84;5112921;28;21001;-69
2023/01/10 04:47:25;;;;;;;21.30;6.47;;;;;;;5.34;100.00;100112.00;5101087;28;20475;-69
2023/01/10 04:49:51;;;;;;;15.47;6.07;;;;;;;5.31;100.00;100109.56;5102729;28;20543;-69
2023/01/10 04:52:18;;;;;;;11.77;6.03;;;;;;;5.22;100.00;100116.38;5121374;28;20470;-69
2023/01/10 04:54:45;;;;;;;12.80;7.70;;;;;;;5.23;100.00;100118.94;5110836;28;20493;-69
2023/01/10 04:57:11;;;;;;;16.00;6.23;;;;;;;5.27;100.00;100127.50;5101318;28;20475;-69
2023/01/10 04:59:39;;;;;;;14.53;6.40;;;;;;;5.34;100.00;100127.91;5112787;28;20446;-69
2023/01/10 05:02:06;;;;;;;13.87;6.73;;;;;;;5.47;100.00;100131.38;5103862;28;20472;-69
2023/01/10 05:04:32;;;;;;;17.50;6.90;;;;;;;5.68;100.00;100128.09;5100967;28;20482;-69
2023/01/10 05:06:59;;;;;;;15.73;6.80;;;;;;;5.64;100.00;100128.34;5107979;28;20479;-69
2023/01/10 05:09:26;;;;;;;17.60;7.33;;;;;;;5.63;100.00;100142.56;5100752;28;20467;-70
2023/01/10 05:11:52;;;;;;;19.80;8.23;;;;;;;5.65;100.00;100145.09;5100586;28;20475;-68
2023/01/10 05:14:19;;;;;;;14.27;7.10;;;;;;;5.65;100.00;100145.09;5115818;28;20493;-70
2023/01/10 05:16:47;;;;;;;23.77;7.80;;;;;;;5.75;100.00;100151.44;5115872;28;20514;-69
2023/01/10 05:19:14;;;;;;;21.97;7.53;;;;;;;5.81;100.00;100158.94;5120023;28;20446;-70
2023/01/10 05:21:40;;;;;;;20.03;8.03;;;;;;;5.74;100.00;100160.34;5118879;28;20470;-69
2023/01/10 05:24:08;;;;;;;25.60;8.50;;;;;;;5.77;100.00;100167.25;5118943;28;20451;-70
2023/01/10 05:26:35;;;;;;;19.17;8.90;;;;;;;5.79;100.00;100168.81;5101119;28;20503;-69
2023/01/10 05:29:01;;;;;;;17.97;8.53;;;;;;;5.78;100.00;100177.75;5106008;28;20478;-71
2023/01/10 05:31:28;;;;;;;20.57;9.03;;;;;;;5.81;100.00;100193.41;5108931;28;20478;-61
2023/01/10 05:33:56;;;;;;;21.73;8.93;;;;;;;5.81;100.00;100187.28;5117016;28;20989;-71
2023/01/10 05:36:23;;;;;;;19.40;8.40;;;;;;;5.77;100.00;100177.84;5103580;28;20494;-60
2023/01/10 05:38:49;;;;;;;15.37;7.40;;;;;;;5.63;100.00;100179.69;5116785;28;20477;-60
2023/01/10 05:41:16;;;;;;;20.37;8.00;;;;;;;5.56;100.00;100186.41;5107698;28;20475;-60
2023/01/10 05:43:42;;;;;;;17.37;8.40;;;;;;;5.50;100.00;100191.28;5113834;28;20458;-60
2023/01/10 05:46:09;;;;;;;16.40;6.90;;;;;;;5.57;100.00;100200.50;5114407;28;20483;-60
2023/01/10 05:48:36;;;;;;;11.37;7.00;;;;;;;5.44;100.00;100201.38;5106261;28;20458;-60
2023/01/10 05:51:05;;;;;;;15.30;8.03;;;;;;;5.42;100.00;100210.41;5114184;28;20471;-60
2023/01/10 05:53:31;;;;;;;17.70;8.10;;;;;;;5.35;100.00;100201.19;5110633;28;20498;-60
2023/01/10 05:55:59;;;;;;;14.73;7.70;;;;;;;5.46;100.00;100207.41;5109969;28;20888;-59
2023/01/10 05:58:26;;;;;;;16.40;7.60;;;;;;;5.41;100.00;100209.53;5099472;28;20448;-58
2023/01/10 06:00:54;;;;;;;17.40;9.10;;;;;;;5.35;100.00;100220.59;5122769;28;20472;-60
2023/01/10 06:03:20;;;;;;;11.97;7.73;;;;;;;5.45;100.00;100224.28;5115028;28;20599;-60
2023/01/10 06:05:47;;;;;;;21.33;9.80;;;;;;;5.36;100.00;100229.38;5107653;28;20483;-60
2023/01/10 06:08:15;;;;;;;17.83;10.17;;;;;;;5.42;100.00;100223.66;5117421;28;20904;-60
2023/01/10 06:10:42;;;;;;;18.40;9.30;;;;;;;5.44;100.00;100235.84;5107973;28;20474;-60
2023/01/10 06:13:10;;;;;;;13.57;9.40;;;;;;;5.46;100.00;100231.28;5103513;28;20463;-60
2023/01/10 06:15:37;;;;;;;17.13;9.37;;;;;;;5.43;100.00;100243.91;5101017;28;20558;-60
2023/01/10 06:18:04;;;;;;;19.40;9.37;;;;;;;5.41;100.00;100235.22;5105112;28;20477;-61
2023/01/10 06:20:31;;;;;;;20.43;8.90;;;;;;;5.38;100.00;100238.06;5105353;28;20451;-60
2023/01/10 06:23:01;;;;;;;23.77;9.57;;;;;;;5.39;100.00;100245.94;5102698;28;20456;-60
2023/01/10 06:25:29;;;;;;;16.17;9.47;;;;;;;5.50;100.00;100255.78;5106787;28;20493;-60
2023/01/10 06:27:55;;;;;;;20.40;9.03;;;;;;;5.42;100.00;100255.47;5117226;28;20461;-60
2023/01/10 06:30:22;;;;;;;16.43;9.70;;;;;;;5.51;100.00;100257.47;5121341;28;20514;-60
2023/01/10 06:32:49;;;;;;;19.67;9.80;;;;;;;5.53;100.00;100262.69;5123110;28;20552;-60
2023/01/10 06:35:16;;;;;;;29.40;11.77;;;;;;;5.59;100.00;100265.75;5122443;28;20442;-60
2023/01/10 06:37:43;;;;;;;26.43;9.20;;;;;;;5.67;100.00;100275.81;5121380;28;21112;-60
2023/01/10 06:40:11;;;;;;;19.30;10.87;;;;;;;5.70;100.00;100288.84;5110299;28;20969;-65
2023/01/10 06:42:40;;;;;;;24.93;10.07;;;;;;;5.68;100.00;100293.44;5106208;28;20793;-66
2023/01/10 06:45:07;;;;;;;19.07;8.80;;;;;;;5.72;100.00;100288.75;5113789;28;20493;-65
2023/01/10 06:47:34;;;;;;;20.93;8.90;;;;;;;5.55;100.00;100293.41;5122085;28;20470;-66
2023/01/10 06:50:00;;;;;;;24.93;10.10;;;;;;;5.65;100.00;100288.34;5081719;28;20483;-67
2023/01/10 06:52:27;;;;;;;21.43;9.80;;;;;;;5.65;100.00;100299.78;5097875;28;20534;-66
2023/01/10 06:54:54;;;;;;;16.27;10.73;;;;;;;5.75;100.00;100299.16;5102506;28;20531;-65
2023/01/10 06:57:20;;;;;;;18.53;10.87;;;;;;;5.73;100.00;100309.88;5120379;28;20509;-65
2023/01/10 06:59:48;;;;;;;17.73;10.33;;;;;;;5.67;100.00;100299.69;5121688;28;20439;-66
2023/01/10 07:02:15;;;;;;;22.37;10.90;;;;;;;5.66;100.00;100303.31;5109414;28;20486;-65
2023/01/10 07:04:42;;;;;;;17.83;9.97;;;;;;;5.70;100.00;100309.25;5121872;28;20446;-66
2023/01/10 07:07:08;;;;;;;25.80;12.57;;;;;;;5.76;100.00;100314.09;5121279;28;20478;-66
2023/01/10 07:09:35;;;;;;;24.00;11.60;;;;;;;5.73;100.00;100312.53;5121867;28;20510;-65
2023/01/10 07:12:01;;;;;;;24.10;13.20;;;;;;;5.63;100.00;100314.97;5121981;28;20475;-66
2023/01/10 07:14:28;;;;;;;28.63;13.90;;;;;;;5.69;100.00;100311.03;5120804;28;20454;-66
2023/01/10 07:16:56;;;;;;;25.70;12.57;;;;;;;5.79;100.00;100324.50;5121231;28;20504;-66
2023/01/10 07:19:22;;;;;;;23.03;14.37;;;;;;;5.87;100.00;100327.47;5121947;28;20474;-66
2023/01/10 07:21:49;;;;;;;30.97;14.17;;;;;;;5.84;100.00;100327.69;5120428;28;20477;-66
2023/01/10 07:24:16;;;;;;;26.37;12.73;;;;;;;5.89;100.00;100333.50;5121480;28;20493;-66
2023/01/10 07:26:42;;;;;;;23.93;12.10;;;;;;;5.89;100.00;100333.50;5121250;28;20477;-66
2023/01/10 07:29:09;;;;;;;27.70;13.97;;;;;;;5.90;100.00;100337.84;5120639;28;20564;-66
2023/01/10 07:31:36;;;;;;;22.20;12.90;;;;;;;5.93;100.00;100340.28;5121530;28;20514;-65
2023/01/10 07:34:04;;;;;;;25.77;14.60;;;;;;;5.88;100.00;100350.38;5121724;28;20503;-66
2023/01/10 07:36:30;;;;;;;21.13;14.63;;;;;;;5.82;100.00;100356.97;5119326;28;20513;-67
2023/01/10 07:38:57;;;;;;;19.57;13.83;;;;;;;5.84;100.00;100356.84;5121462;28;20513;-67
2023/01/10 07:41:24;;;;;;;25.57;13.40;;;;;;;5.94;100.00;100365.88;5106892;28;20467;-66
2023/01/10 07:43:50;;;;;;;28.37;14.33;;;;;;;5.76;100.00;100367.16;5118661;28;20485;-65
2023/01/10 07:46:17;;;;;;;26.77;14.53;;;;;;;5.75;100.00;100350.41;5120999;28;20510;-66
2023/01/10 07:48:45;;;;;;;23.27;14.00;;;;;;;5.62;100.00;100347.75;5121120;28;20963;-67
2023/01/10 07:51:13;;;;;;;22.63;14.67;;;;;;;5.89;100.00;100361.84;5116955;28;20520;-66
2023/01/10 07:53:40;;;;;;;35.50;14.00;;;;;;;5.80;100.00;100376.63;5109520;28;20485;-65
2023/01/10 07:56:07;;;;;;;25.40;14.67;;;;;;;5.72;100.00;100373.63;5120931;28;21272;-65
2023/01/10 07:58:34;;;;;;;25.20;14.80;;;;;;;5.76;100.00;100368.00;5121406;28;20522;-66
2023/01/10 08:01:01;;;;;;;24.23;13.53;;;;;;;5.75;100.00;100362.81;5120581;28;20494;-66
2023/01/10 08:03:29;;;;;;;25.20;12.47;;;;;;;5.67;100.00;100366.00;5120262;28;20454;-66
2023/01/10 08:06:00;;;;;;;26.77;15.10;;;;;;;5.84;100.00;100370.97;5120538;28;20462;-66
2023/01/10 08:08:28;;;;;;;28.03;13.30;;;;;;;5.87;100.00;100371.69;5121217;28;20469;-67
2023/01/10 08:10:54;;;;;;;25.50;14.07;;;;;;;5.62;100.00;100370.75;5119354;28;20470;-66
2023/01/10 08:13:21;;;;;;;28.80;13.50;;;;;;;5.76;100.00;100370.66;5117284;28;20451;-66
2023/01/10 08:15:51;;;;;;;27.93;14.10;;;;;;;5.79;100.00;100381.06;5100610;28;20460;-66
2023/01/10 08:18:18;;;;;;;34.60;13.33;;;;;;;5.77;100.00;100385.63;5106227;28;20478;-66
2023/01/10 08:20:46;;;;;;;23.17;13.53;;;;;;;5.77;100.00;100392.75;5119731;28;20497;-66
2023/01/10 08:23:12;;;;;;;19.37;12.60;;;;;;;5.91;100.00;100392.63;5119602;28;20466;-66
2023/01/10 08:25:40;;;;;;;27.37;14.07;;;;;;;5.87;100.00;100398.22;5103902;28;20845;-65
2023/01/10 08:28:07;;;;;;;29.07;14.50;;;;;;;5.84;100.00;100405.47;5120699;28;20450;-65
2023/01/10 08:30:34;;;;;;;19.43;12.57;;;;;;;5.80;100.00;100397.84;5114146;28;20504;-65
2023/01/10 08:33:01;;;;;;;32.23;11.43;;;;;;;5.85;100.00;100409.81;5120213;28;20691;-65
2023/01/10 08:35:28;;;;;;;27.63;12.50;;;;;;;5.81;100.00;100404.81;5119851;28;20467;-65
2023/01/10 08:37:58;;;;;;;22.53;12.90;;;;;;;5.85;100.00;100411.63;5119927;28;20454;-66
2023/01/10 08:40:25;;;;;;;19.83;10.30;;;;;;;5.64;100.00;100424.53;5119082;28;20478;-65
2023/01/10 08:42:58;;;;;;;19.93;12.43;;;;;;;5.70;100.00;100423.31;5120334;28;20454;-65
2023/01/10 08:45:24;;;;;;;32.40;10.80;;;;;;;5.87;100.00;100419.47;5120056;28;20860;-65
2023/01/10 08:47:51;;;;;;;25.93;12.00;;;;;;;5.91;100.00;100435.06;5120068;28;20478;-64
2023/01/10 08:50:17;;;;;;;20.20;11.43;;;;;;;6.01;100.00;100432.69;5118252;28;20982;-63
2023/01/10 08:52:44;;;;;;;19.50;11.63;;;;;;;6.02;100.00;100432.56;5120138;28;20826;-64
2023/01/10 08:55:11;;;;;;;28.23;10.23;;;;;;;6.06;100.00;100424.38;5120125;28;20439;-63
2023/01/10 08:57:37;;;;;;;20.90;11.77;;;;;;;5.87;100.00;100425.63;5120289;28;20449;-63
2023/01/10 09:00:07;;;;;;;28.13;12.33;;;;;;;6.07;100.00;100431.38;5121925;28;20446;-66
2023/01/10 09:02:34;;;;;;;22.07;10.70;;;;;;;6.20;100.00;100440.19;5122965;28;20520;-66
2023/01/10 09:05:00;;;;;;;24.57;11.53;;;;;;;6.18;100.00;100428.81;5123951;28;20477;-65
2023/01/10 09:07:27;;;;;;;24.90;11.57;;;;;;;6.22;100.00;100439.13;5124118;28;20504;-65
2023/01/10 09:09:53;;;;;;;25.13;12.40;;;;;;;6.20;100.00;100442.84;5124411;28;20477;-64
2023/01/10 09:15:07;;;;;;;26.63;10.97;;;;;;;6.28;100.00;100447.63;5110311;28;20468;-63
2023/01/10 09:17:34;;;;;;;26.80;11.77;;;;;;;6.25;100.00;100451.34;5103363;28;20463;-64
2023/01/10 09:20:04;;;;;;;20.40;9.90;;;;;;;6.31;100.00;100450.91;5102528;28;20460;-65
2023/01/10 09:22:31;;;;;;;23.27;9.97;;;;;;;6.47;100.00;100448.00;5103574;28;20846;-65
2023/01/10 09:24:58;;;;;;;25.60;9.80;;;;;;;6.78;100.00;100445.81;5114933;28;20482;-66
2023/01/10 09:27:24;;;;;;;20.80;9.57;;;;;;;7.00;100.00;100442.44;5122291;28;20478;-66
2023/01/10 09:29:51;;;;;;;33.23;9.70;;;;;;;6.92;100.00;100442.13;5124397;28;20454;-66
2023/01/10 09:32:19;;;;;;;25.10;10.33;;;;;;;6.74;100.00;100426.56;5122541;28;20486;-65
2023/01/10 09:34:46;;;;;;;22.37;9.80;;;;;;;6.82;100.00;100443.78;5123004;28;20486;-64
2023/01/10 09:37:13;;;;;;;19.70;10.00;;;;;;;6.87;100.00;100436.31;5123128;28;20474;-65
2023/01/10 09:39:39;;;;;;;20.70;9.23;;;;;;;7.05;100.00;100448.25;5124153;28;20531;-65
2023/01/10 09:42:20;;;;;;;26.13;9.83;;;;;;;6.68;100.00;100450.91;5122487;28;20570;-64
2023/01/10 09:44:54;;;;;;;22.20;9.53;;;;;;;6.54;100.00;100467.84;5123029;28;20491;-65
2023/01/10 09:47:25;;;;;;;22.23;10.50;;;;;;;6.72;100.00;100470.19;5123320;28;20523;-64
2023/01/10 09:50:01;;;;;;;22.10;9.00;;;;;;;6.49;100.00;100474.47;5121695;28;20463;-64
2023/01/10 09:52:30;;;;;;;20.13;9.80;;;;;;;6.51;100.00;100489.34;5123674;28;20475;-64
2023/01/10 09:54:58;;;;;;;27.87;9.30;;;;;;;6.62;100.00;100479.75;5116992;28;20447;-65
2023/01/10 09:57:25;;;;;;;20.60;9.20;;;;;;;6.52;100.00;100484.88;5119852;28;20504;-65
2023/01/10 09:59:53;;;;;;;21.00;10.60;;;;;;;6.62;100.00;100482.41;5123991;28;20447;-64
2023/01/10 10:02:27;;;;;;;30.33;11.23;;;;;;;6.65;100.00;100480.38;5123184;28;20533;-65
2023/01/10 10:05:02;;;;;;;17.30;8.60;;;;;;;6.74;100.00;100479.72;5122231;28;20482;-64
2023/01/10 10:07:29;;;;;;;26.43;10.70;;;;;;;6.67;100.00;100477.63;5122679;28;20860;-65
2023/01/10 10:09:56;;;;;;;22.17;10.57;;;;;;;6.81;100.00;100484.59;5123928;28;20459;-65
2023/01/10 10:12:27;;;;;;;24.77;9.73;;;;;;;7.22;100.00;100478.94;5121520;28;20543;-65
2023/01/10 10:15:04;;;;;;;42.50;10.37;;;;;;;6.91;100.00;100485.63;5120060;28;20458;-64
2023/01/10 10:17:37;;;;;;;26.03;9.70;;;;;;;7.12;100.00;100489.38;5122378;28;20482;-64
2023/01/10 10:20:18;;;;;;;21.63;11.70;;;;;;;6.89;100.00;100484.88;5122188;28;20503;-65
2023/01/10 10:22:53;;;;;;;19.40;10.03;;;;;;;6.89;100.00;100484.88;5123328;28;20454;-64
2023/01/10 10:25:31;;;;;;;25.77;10.40;;;;;;;7.06;100.00;100483.66;5122716;28;20470;-64
2023/01/10 10:28:17;;;;;;;25.47;9.30;;;;;;;7.15;100.00;100473.22;5122613;28;20987;-65
2023/01/10 10:30:50;;;;;;;27.83;9.60;;;;;;;7.03;100.00;100478.56;5122270;28;21002;-65
2023/01/10 10:33:33;;;;;;;24.00;8.70;;;;;;;6.86;100.00;100472.69;5122323;28;20439;-65
2023/01/10 10:36:02;;;;;;;23.77;9.70;;;;;;;6.84;100.00;100461.31;5122209;28;20498;-64
2023/01/10 10:38:31;;;;;;;21.10;8.60;;;;;;;6.73;100.00;100470.03;5122125;28;20615;-67
2023/01/10 10:40:59;;;;;;;25.80;9.30;;;;;;;6.87;100.00;100470.84;5122324;28;20534;-65
2023/01/10 10:43:30;;;;;;;27.33;9.17;;;;;;;6.89;100.00;100475.13;5122227;28;20542;-66
2023/01/10 10:46:00;;;;;;;30.10;9.10;;;;;;;6.80;100.00;100475.75;5122418;28;20478;-64
2023/01/10 10:48:30;;;;;;;21.90;9.00;;;;;;;6.87;100.00;100462.88;5121129;28;20935;-66
2023/01/10 10:51:03;;;;;;;18.30;8.77;;;;;;;6.83;100.00;100475.56;5121066;28;20871;-65
2023/01/10 10:53:31;;;;;;;26.73;9.27;;;;;;;6.91;100.00;100473.19;5122445;28;20479;-64
2023/01/10 10:55:58;;;;;;;25.93;8.80;;;;;;;6.88;100.00;100469.91;5121229;28;20497;-64
2023/01/10 10:58:29;;;;;;;25.00;10.10;;;;;;;7.03;100.00;100479.44;5122107;28;20526;-64
2023/01/10 11:00:56;;;;;;;22.13;9.57;;;;;;;7.06;100.00;100471.22;5121407;28;20569;-65
2023/01/10 11:03:31;;;;;;;24.43;8.30;;;;;;;7.21;100.00;100481.69;5121441;28;20472;-64
2023/01/10 11:06:00;;;;;;;27.37;9.80;;;;;;;6.98;100.00;100473.59;5121692;28;20482;-65
2023/01/10 11:08:28;;;;;;;19.87;8.57;;;;;;;7.13;100.00;100480.47;5122157;28;20523;-65
2023/01/10 11:10:57;;;;;;;23.17;10.30;;;;;;;6.95;100.00;100479.97;5121258;28;20486;-64
2023/01/10 11:13:30;;;;;;;22.47;9.53;;;;;;;6.94;100.00;100472.97;5120206;28;20455;-64
2023/01/10 11:15:56;;;;;;;19.07;8.07;;;;;;;6.82;100.00;100468.53;5108314;28;20478;-64
2023/01/10 11:18:25;;;;;;;31.13;10.03;;;;;;;7.12;100.00;100457.47;5120019;28;20496;-65
2023/01/10 11:20:59;;;;;;;23.20;8.93;;;;;;;7.39;100.00;100460.84;5080517;28;20472;-65
2023/01/10 11:23:34;;;;;;;29.00;10.83;;;;;;;7.50;98.69;100445.78;5098789;28;20458;-65
2023/01/10 11:26:01;;;;;;;24.00;9.50;;;;;;;7.35;98.64;100454.91;5115789;28;20478;-65
2023/01/10 11:28:32;;;;;;;19.13;9.70;;;;;;;7.61;98.49;100441.47;5101610;28;20463;-64
2023/01/10 11:30:59;;;;;;;26.73;10.30;;;;;;;7.43;97.77;100441.03;5119899;28;20510;-64
2023/01/10 11:33:27;;;;;;;29.60;9.50;;;;;;;7.28;98.81;100456.34;5116829;28;20459;-64
2023/01/10 11:36:00;;;;;;;18.17;8.73;;;;;;;7.08;100.00;100450.69;5101639;28;20471;-65
2023/01/10 11:38:29;;;;;;;17.00;8.90;;;;;;;7.37;99.52;100455.66;5081062;28;20548;-64
2023/01/10 11:40:57;;;;;;;28.97;8.90;;;;;;;7.41;98.55;100437.66;5108292;28;20458;-65